createdAt,value
2024-02-29T00:00:18.117Z,996.47
2024-02-29T00:01:18.261Z,996.42
2024-02-29T00:02:18.114Z,996.48
2024-02-29T00:03:18.147Z,996.42
2024-02-29T00:04:18.146Z,996.40
2024-02-29T00:05:18.105Z,996.39
2024-02-29T00:06:22.985Z,996.41
2024-02-29T00:07:24.890Z,996.49
2024-02-29T00:08:26.145Z,996.46
2024-02-29T00:09:19.045Z,996.46
2024-02-29T00:10:18.183Z,996.45
2024-02-29T00:11:18.474Z,996.46
2024-02-29T00:12:18.170Z,996.53
2024-02-29T00:13:22.834Z,996.46
2024-02-29T00:14:25.839Z,996.55
2024-02-29T00:15:26.805Z,996.52
2024-02-29T00:16:18.988Z,996.53
2024-02-29T00:17:21.901Z,996.52
2024-02-29T00:18:17.994Z,996.50
2024-02-29T00:19:17.980Z,996.47
2024-02-29T00:20:25.530Z,996.54
2024-02-29T00:21:28.382Z,996.59
2024-02-29T00:22:23.274Z,996.59
2024-02-29T00:23:18.972Z,996.50
2024-02-29T00:24:26.708Z,996.53
2024-02-29T00:25:25.932Z,996.54
2024-02-29T00:26:23.480Z,996.49
2024-02-29T00:27:19.030Z,996.47
2024-02-29T00:28:18.080Z,996.49
2024-02-29T00:30:24.398Z,996.46
2024-02-29T00:31:27.960Z,996.45
2024-02-29T00:32:29.809Z,996.47
2024-02-29T00:33:27.941Z,996.42
2024-02-29T00:34:30.495Z,996.52
2024-02-29T00:35:24.642Z,996.37
2024-02-29T00:36:18.788Z,996.48
2024-02-29T00:37:17.792Z,996.43
2024-02-29T00:38:20.044Z,996.42
2024-02-29T00:39:19.402Z,996.41
2024-02-29T00:40:21.436Z,996.49
2024-02-29T00:41:17.679Z,996.41
2024-02-29T00:42:27.749Z,996.42
2024-02-29T00:43:35.767Z,996.37
2024-02-29T00:44:29.708Z,996.51
2024-02-29T00:45:18.751Z,996.48
2024-02-29T00:46:27.925Z,996.41
2024-02-29T00:47:26.810Z,996.39
2024-02-29T00:48:25.011Z,996.48
2024-02-29T00:49:25.914Z,996.43
2024-02-29T00:50:31.333Z,996.35
2024-02-29T00:51:32.393Z,996.35
2024-02-29T00:52:18.732Z,996.46
2024-02-29T00:54:27.478Z,996.35
2024-02-29T00:55:18.729Z,996.30
2024-02-29T00:56:17.616Z,996.34
2024-02-29T00:57:23.664Z,996.28
2024-02-29T00:58:24.526Z,996.39
2024-02-29T00:59:27.440Z,996.33
2024-02-29T01:00:19.233Z,996.27
2024-02-29T01:01:22.463Z,996.22
2024-02-29T01:02:19.728Z,996.19
2024-02-29T01:03:29.439Z,996.25
2024-02-29T01:04:30.227Z,996.33
2024-02-29T01:05:22.531Z,996.23
2024-02-29T01:06:17.668Z,996.21
2024-02-29T01:07:17.620Z,996.19
2024-02-29T01:08:29.581Z,996.34
2024-02-29T01:09:28.375Z,996.26
2024-02-29T01:13:26.009Z,996.28
2024-02-29T01:14:26.820Z,996.22
2024-02-29T01:15:18.490Z,996.29
2024-02-29T01:16:27.895Z,996.25
2024-02-29T01:19:44.445Z,996.09
2024-02-29T01:20:44.856Z,996.09
2024-02-29T01:21:53.459Z,996.23
2024-02-29T01:22:44.446Z,996.20
2024-02-29T01:25:11.674Z,996.11
2024-02-29T01:26:20.984Z,996.18
2024-02-29T01:27:11.942Z,996.11
2024-02-29T01:29:49.523Z,996.09
2024-02-29T01:30:49.561Z,996.09
2024-02-29T01:33:17.393Z,995.98
2024-02-29T01:34:17.739Z,995.96
2024-02-29T01:36:44.472Z,995.97
2024-02-29T01:37:44.403Z,995.93
2024-02-29T01:40:11.493Z,996.02
2024-02-29T01:41:11.881Z,995.93
2024-02-29T01:43:49.904Z,995.85
2024-02-29T01:44:59.604Z,995.86
2024-02-29T01:45:49.836Z,995.85
2024-02-29T01:48:50.837Z,995.74
2024-02-29T01:50:59.765Z,995.85
2024-02-29T01:51:50.856Z,995.73
2024-02-29T01:54:16.884Z,995.66
2024-02-29T01:55:17.601Z,995.63
2024-02-29T01:57:44.156Z,995.62
2024-02-29T01:58:52.491Z,995.57
2024-02-29T02:01:11.940Z,995.68
2024-02-29T02:02:11.777Z,995.64
2024-02-29T02:03:12.556Z,995.57
2024-02-29T02:04:13.285Z,995.55
2024-02-29T02:05:14.252Z,995.51
2024-02-29T02:06:21.259Z,995.60
2024-02-29T02:07:20.362Z,995.56
2024-02-29T02:08:21.274Z,995.55
2024-02-29T02:10:41.606Z,995.50
2024-02-29T02:11:50.803Z,995.46
2024-02-29T02:12:42.581Z,995.48
2024-02-29T02:13:41.519Z,995.49
2024-02-29T02:14:43.214Z,995.38
2024-02-29T02:15:44.750Z,995.40
2024-02-29T02:17:50.931Z,995.39
2024-02-29T02:18:41.981Z,995.39
2024-02-29T02:21:15.406Z,995.52
2024-02-29T02:22:24.494Z,995.41
2024-02-29T02:23:15.976Z,995.43
2024-02-29T02:25:54.597Z,995.35
2024-02-29T02:27:05.037Z,995.34
2024-02-29T02:29:22.751Z,995.40
2024-02-29T02:30:23.701Z,995.31
2024-02-29T02:31:35.327Z,995.23
2024-02-29T02:32:32.895Z,995.31
2024-02-29T02:34:50.330Z,995.29
2024-02-29T02:35:59.705Z,995.36
2024-02-29T02:38:17.267Z,995.40
2024-02-29T02:39:17.787Z,995.46
2024-02-29T02:42:07.127Z,995.40
2024-02-29T02:43:16.438Z,995.40
2024-02-29T02:45:48.136Z,995.32
2024-02-29T02:46:57.185Z,995.33
2024-02-29T02:48:04.614Z,995.37
2024-02-29T02:50:27.433Z,995.32
2024-02-29T02:54:00.494Z,995.24
2024-02-29T02:55:10.223Z,995.20
2024-02-29T02:57:35.352Z,995.19
2024-02-29T03:00:13.546Z,995.10
2024-02-29T03:01:24.091Z,995.23
2024-02-29T03:02:13.804Z,995.11
2024-02-29T03:03:24.784Z,995.12
2024-02-29T03:05:25.743Z,995.15
2024-02-29T03:07:49.030Z,995.13
2024-02-29T03:08:59.743Z,995.15
2024-02-29T03:10:58.797Z,995.18
2024-02-29T03:14:24.279Z,995.18
2024-02-29T03:15:26.580Z,995.10
2024-02-29T03:18:03.061Z,995.15
2024-02-29T03:19:09.461Z,995.10
2024-02-29T03:20:15.796Z,995.06
2024-02-29T03:22:13.189Z,995.09
2024-02-29T03:25:42.574Z,995.13
2024-02-29T03:28:19.784Z,995.11
2024-02-29T03:30:56.826Z,995.03
2024-02-29T03:31:57.358Z,995.00
2024-02-29T03:33:08.384Z,994.96
2024-02-29T03:35:32.494Z,995.02
2024-02-29T03:39:13.605Z,994.91
2024-02-29T03:40:26.077Z,994.89
2024-02-29T03:43:12.601Z,994.81
2024-02-29T03:44:14.758Z,994.90
2024-02-29T03:45:13.257Z,994.82
2024-02-29T03:46:22.106Z,994.79
2024-02-29T03:48:23.729Z,994.82
2024-02-29T03:49:26.378Z,994.77
2024-02-29T03:51:52.836Z,994.76
2024-02-29T03:53:04.547Z,994.76
2024-02-29T03:53:52.975Z,994.74
2024-02-29T03:55:03.691Z,994.72
2024-02-29T03:58:59.053Z,994.69
2024-02-29T03:59:59.886Z,994.61
2024-02-29T04:03:05.582Z,994.57
2024-02-29T04:04:17.297Z,994.61
2024-02-29T04:05:05.479Z,994.56
2024-02-29T04:07:45.271Z,994.57
2024-02-29T04:10:22.921Z,994.58
2024-02-29T04:11:33.861Z,994.56
2024-02-29T04:12:23.619Z,994.57
2024-02-29T04:13:31.763Z,994.68
2024-02-29T04:15:51.661Z,994.68
2024-02-29T04:16:52.232Z,994.62
2024-02-29T04:17:54.018Z,994.58
2024-02-29T04:18:56.062Z,994.49
2024-02-29T04:19:52.279Z,994.59
2024-02-29T04:22:25.738Z,994.53
2024-02-29T04:25:00.440Z,994.48
2024-02-29T04:26:11.706Z,994.50
2024-02-29T04:29:01.222Z,994.45
2024-02-29T04:31:47.340Z,994.43
2024-02-29T04:32:47.839Z,994.50
2024-02-29T04:35:20.640Z,994.44
2024-02-29T04:36:29.842Z,994.46
2024-02-29T04:38:50.765Z,994.38
2024-02-29T04:39:50.855Z,994.41
2024-02-29T04:42:17.933Z,994.45
2024-02-29T04:43:18.596Z,994.42
2024-02-29T04:45:48.815Z,994.47
2024-02-29T04:48:21.671Z,994.40
2024-02-29T04:49:30.980Z,994.44
2024-02-29T04:51:59.623Z,994.27
2024-02-29T04:52:59.671Z,994.37
2024-02-29T04:55:28.563Z,994.29
2024-02-29T04:56:35.992Z,994.25
2024-02-29T04:58:55.575Z,994.19
2024-02-29T04:59:56.009Z,994.16
2024-02-29T05:02:24.050Z,994.30
2024-02-29T05:03:24.496Z,994.22
2024-02-29T05:05:51.791Z,994.34
2024-02-29T05:07:01.130Z,994.28
2024-02-29T05:09:02.077Z,994.27
2024-02-29T05:09:54.131Z,994.14
2024-02-29T05:12:29.771Z,994.24
2024-02-29T05:13:29.834Z,994.15
2024-02-29T05:15:59.139Z,994.16
2024-02-29T05:17:08.308Z,994.22
2024-02-29T05:19:28.032Z,994.24
2024-02-29T05:20:38.122Z,994.05
2024-02-29T05:21:27.896Z,994.07
2024-02-29T05:23:55.188Z,994.15
2024-02-29T05:25:05.159Z,994.09
2024-02-29T05:25:55.918Z,994.10
2024-02-29T05:26:56.021Z,994.16
2024-02-29T05:29:52.241Z,994.10
2024-02-29T05:32:25.203Z,994.08
2024-02-29T05:33:34.733Z,994.20
2024-02-29T05:36:11.715Z,994.04
2024-02-29T05:37:12.012Z,993.99
2024-02-29T05:39:40.341Z,993.99
2024-02-29T05:40:57.717Z,993.92
2024-02-29T05:41:50.699Z,993.92
2024-02-29T05:44:07.458Z,993.93
2024-02-29T05:45:07.856Z,993.99
2024-02-29T05:47:40.379Z,993.88
2024-02-29T05:48:40.403Z,993.87
2024-02-29T05:49:40.300Z,993.86
2024-02-29T05:50:40.281Z,993.87
2024-02-29T05:51:40.311Z,993.85
2024-02-29T05:52:40.277Z,993.87
2024-02-29T05:53:40.252Z,993.92
2024-02-29T05:54:40.283Z,993.84
2024-02-29T05:55:40.228Z,993.82
2024-02-29T05:56:40.236Z,993.99
2024-02-29T05:57:40.233Z,993.86
2024-02-29T05:58:40.200Z,993.94
2024-02-29T05:59:40.185Z,993.90
2024-02-29T06:00:40.204Z,993.86
2024-02-29T06:01:40.201Z,993.77
2024-02-29T06:02:40.176Z,993.85
2024-02-29T06:03:40.178Z,993.83
2024-02-29T06:04:40.138Z,993.72
2024-02-29T06:05:40.121Z,993.77
2024-02-29T06:06:40.149Z,993.77
2024-02-29T06:07:40.196Z,993.77
2024-02-29T06:08:40.098Z,993.85
2024-02-29T06:09:40.130Z,993.84
2024-02-29T06:10:40.083Z,993.91
2024-02-29T06:11:40.072Z,993.80
2024-02-29T06:12:40.094Z,993.81
2024-02-29T06:13:40.038Z,993.83
2024-02-29T06:14:42.287Z,993.98
2024-02-29T06:15:58.844Z,993.87
2024-02-29T06:16:40.404Z,993.85
2024-02-29T06:17:51.017Z,993.91
2024-02-29T07:51:15.122Z,993.43
2024-02-29T07:52:15.221Z,993.50
2024-02-29T07:53:15.132Z,993.42
2024-02-29T07:54:15.137Z,993.42
2024-02-29T07:55:15.144Z,993.39
2024-02-29T07:56:15.088Z,993.32
2024-02-29T07:57:15.066Z,993.38
2024-02-29T07:58:15.152Z,993.33
2024-02-29T07:59:15.035Z,993.31
2024-02-29T08:00:15.045Z,993.35
2024-02-29T08:01:15.067Z,993.32
2024-02-29T08:02:15.009Z,993.32
2024-02-29T08:03:15.015Z,993.25
2024-02-29T08:04:15.084Z,993.23
2024-02-29T08:05:14.974Z,993.23
2024-02-29T08:06:14.987Z,993.30
2024-02-29T08:07:15.124Z,993.24
2024-02-29T08:08:14.956Z,993.32
2024-02-29T08:09:14.977Z,993.26
2024-02-29T08:10:15.058Z,993.20
2024-02-29T08:11:15.016Z,993.24
2024-02-29T08:12:14.918Z,993.17
2024-02-29T08:13:14.970Z,993.12
2024-02-29T08:14:16.379Z,993.21
2024-02-29T08:15:14.869Z,993.15
2024-02-29T08:16:14.913Z,993.21
2024-02-29T08:17:14.869Z,993.17
2024-02-29T08:18:14.920Z,993.09
2024-02-29T08:19:14.918Z,993.11
2024-02-29T08:20:14.864Z,993.07
2024-02-29T08:21:14.839Z,993.03
2024-02-29T08:22:14.951Z,993.07
2024-02-29T08:23:14.784Z,993.05
2024-02-29T08:24:14.780Z,993.15
2024-02-29T08:25:14.817Z,993.03
2024-02-29T08:26:14.769Z,993.13
2024-02-29T08:27:14.772Z,993.05
2024-02-29T08:28:14.934Z,993.03
2024-02-29T08:29:14.897Z,993.08
2024-02-29T08:30:14.724Z,993.04
2024-02-29T08:31:14.760Z,993.08
2024-02-29T08:32:15.907Z,993.09
2024-02-29T08:33:14.756Z,993.03
2024-02-29T08:34:14.689Z,993.05
2024-02-29T08:35:14.665Z,993.07
2024-02-29T08:36:14.660Z,993.09
2024-02-29T08:37:14.726Z,993.09
2024-02-29T08:38:14.632Z,993.08
2024-02-29T08:39:14.620Z,993.06
2024-02-29T08:40:14.727Z,993.06
2024-02-29T08:41:14.598Z,993.08
2024-02-29T08:42:14.596Z,993.12
2024-02-29T08:43:14.662Z,993.05
2024-02-29T08:44:14.563Z,993.12
2024-02-29T08:45:14.562Z,993.01
2024-02-29T08:46:14.609Z,992.99
2024-02-29T08:47:14.538Z,992.97
2024-02-29T08:48:14.535Z,993.05
2024-02-29T08:49:14.567Z,993.02
2024-02-29T08:50:14.521Z,993.04
2024-02-29T08:51:14.487Z,993.05
2024-02-29T08:52:14.515Z,993.04
2024-02-29T08:53:14.467Z,993.08
2024-02-29T08:54:14.468Z,992.93
2024-02-29T08:55:14.475Z,992.91
2024-02-29T08:56:14.447Z,992.93
2024-02-29T08:57:14.425Z,992.96
2024-02-29T08:58:14.463Z,992.95
2024-02-29T08:59:15.735Z,993.01
2024-02-29T09:00:14.393Z,993.02
2024-02-29T09:01:14.432Z,993.05
2024-02-29T09:02:14.371Z,992.99
2024-02-29T09:03:14.373Z,992.94
2024-02-29T09:04:14.424Z,992.94
2024-02-29T09:05:14.364Z,992.96
2024-02-29T09:06:14.338Z,992.93
2024-02-29T09:07:14.341Z,992.94
2024-02-29T09:08:14.322Z,992.97
2024-02-29T09:09:14.302Z,992.91
2024-02-29T09:10:14.395Z,992.97
2024-02-29T09:11:14.952Z,992.92
2024-02-29T09:12:14.274Z,992.84
2024-02-29T09:13:21.025Z,992.89
2024-02-29T09:14:15.258Z,992.87
2024-02-29T09:15:14.247Z,992.85
2024-02-29T09:16:14.273Z,992.81
2024-02-29T09:17:14.227Z,992.80
2024-02-29T09:18:14.236Z,992.82
2024-02-29T09:19:14.221Z,992.75
2024-02-29T09:20:14.184Z,992.78
2024-02-29T09:21:14.187Z,992.76
2024-02-29T09:22:14.202Z,992.69
2024-02-29T09:23:14.162Z,992.71
2024-02-29T09:24:15.957Z,992.71
2024-02-29T09:25:14.160Z,992.72
2024-02-29T09:26:14.123Z,992.68
2024-02-29T09:27:14.125Z,992.74
2024-02-29T09:28:14.187Z,992.63
2024-02-29T09:29:14.107Z,992.61
2024-02-29T09:30:14.079Z,992.58
2024-02-29T09:31:14.151Z,992.59
2024-02-29T09:32:14.065Z,992.59
2024-02-29T09:33:14.082Z,992.58
2024-02-29T09:34:14.129Z,992.50
2024-02-29T09:35:14.030Z,992.52
2024-02-29T09:36:14.023Z,992.58
2024-02-29T09:37:14.118Z,992.58
2024-02-29T09:38:13.991Z,992.56
2024-02-29T09:39:13.987Z,992.62
2024-02-29T09:40:13.997Z,992.61
2024-02-29T09:42:15.328Z,992.56
2024-02-29T09:43:14.071Z,992.43
2024-02-29T09:44:13.937Z,992.51
2024-02-29T09:45:13.944Z,992.45
2024-02-29T09:46:14.034Z,992.50
2024-02-29T09:47:13.932Z,992.44
2024-02-29T09:48:13.907Z,992.42
2024-02-29T09:49:13.916Z,992.36
2024-02-29T09:50:13.879Z,992.37
2024-02-29T09:51:15.246Z,992.36
2024-02-29T09:52:14.041Z,992.30
2024-02-29T09:53:13.837Z,992.36
2024-02-29T09:54:13.826Z,992.31
2024-02-29T09:55:13.912Z,992.33
2024-02-29T09:56:13.860Z,992.35
2024-02-29T09:57:13.814Z,992.36
2024-02-29T09:58:13.809Z,992.34
2024-02-29T09:59:13.792Z,992.35
2024-02-29T10:00:13.785Z,992.29
2024-02-29T10:01:13.851Z,992.31
2024-02-29T10:02:13.823Z,992.30
2024-02-29T10:03:13.729Z,992.31
2024-02-29T10:04:13.759Z,992.25
2024-02-29T10:05:13.765Z,992.28
2024-02-29T10:06:13.754Z,992.23
2024-02-29T10:07:13.727Z,992.32
2024-02-29T10:08:13.677Z,992.24
2024-02-29T10:09:13.683Z,992.28
2024-02-29T10:10:13.771Z,992.18
2024-02-29T10:11:13.985Z,992.25
2024-02-29T10:18:47.430Z,992.01
2024-02-29T10:18:57.211Z,992.04
2024-02-29T10:19:57.179Z,991.97
2024-02-29T10:22:39.299Z,991.96
2024-02-29T10:23:23.132Z,991.98
2024-02-29T10:24:23.143Z,992.00
2024-02-29T10:26:58.185Z,992.02
2024-02-29T10:27:49.238Z,992.02
2024-02-29T10:28:54.342Z,991.97
2024-02-29T10:29:49.033Z,991.98
2024-02-29T10:30:49.018Z,992.01
2024-02-29T10:31:48.997Z,991.93
2024-02-29T10:32:49.020Z,991.93
2024-02-29T10:33:49.063Z,991.85
2024-02-29T10:34:49.983Z,991.84
2024-02-29T10:35:48.943Z,991.82
2024-02-29T10:36:48.960Z,991.79
2024-02-29T10:37:48.959Z,991.76
2024-02-29T10:38:48.927Z,991.77
2024-02-29T10:39:48.952Z,991.79
2024-02-29T10:40:48.892Z,991.71
2024-02-29T10:42:14.950Z,991.72
2024-02-29T10:42:48.895Z,991.71
2024-02-29T10:43:48.932Z,991.77
2024-02-29T10:44:48.863Z,991.74
2024-02-29T10:45:48.884Z,991.72
2024-02-29T10:46:48.850Z,991.67
2024-02-29T10:47:48.865Z,991.66
2024-02-29T10:48:48.825Z,991.76
2024-02-29T10:49:48.844Z,991.67
2024-02-29T10:50:48.820Z,991.56
2024-02-29T10:51:48.924Z,991.60
2024-02-29T10:52:49.600Z,991.61
2024-02-29T10:53:48.755Z,991.66
2024-02-29T10:54:48.793Z,991.53
2024-02-29T10:55:48.751Z,991.47
2024-02-29T10:56:48.786Z,991.46
2024-02-29T10:57:48.730Z,991.41
2024-02-29T10:58:48.751Z,991.42
2024-02-29T10:59:48.734Z,991.37
2024-02-29T11:00:48.817Z,991.38
2024-02-29T11:01:48.943Z,991.36
2024-02-29T11:02:48.712Z,991.27
2024-02-29T11:03:48.732Z,991.31
2024-02-29T11:04:48.665Z,991.30
2024-02-29T11:05:48.743Z,991.31
2024-02-29T12:25:00.489Z,989.79
2024-02-29T12:25:37.746Z,989.78
2024-02-29T12:26:37.736Z,989.83
2024-02-29T12:27:37.755Z,989.76
2024-02-29T12:28:37.706Z,989.74
2024-02-29T12:29:37.697Z,989.79
2024-02-29T12:30:37.712Z,989.71
2024-02-29T12:31:37.669Z,989.71
2024-02-29T12:32:37.662Z,989.75
2024-02-29T12:33:37.788Z,989.57
2024-02-29T12:34:37.839Z,989.68
2024-02-29T12:35:37.690Z,989.60
2024-02-29T12:36:37.645Z,989.63
2024-02-29T12:37:37.608Z,989.62
2024-02-29T12:38:37.589Z,989.61
2024-02-29T12:39:37.600Z,989.57
2024-02-29T12:40:37.712Z,989.55
2024-02-29T12:41:37.566Z,989.58
2024-02-29T12:42:37.634Z,989.53
2024-02-29T12:43:37.563Z,989.51
2024-02-29T12:44:37.545Z,989.41
2024-02-29T12:45:37.601Z,989.48
2024-02-29T12:46:37.511Z,989.44
2024-02-29T12:47:37.546Z,989.42
2024-02-29T12:48:37.506Z,989.35
2024-02-29T12:49:37.482Z,989.37
2024-02-29T12:50:37.467Z,989.30
2024-02-29T12:51:37.478Z,989.30
2024-02-29T12:52:37.494Z,989.34
2024-02-29T12:53:37.443Z,989.21
2024-02-29T12:54:37.437Z,989.37
2024-02-29T12:55:37.425Z,989.34
2024-02-29T12:56:37.503Z,989.26
2024-02-29T12:57:37.452Z,989.30
2024-02-29T12:58:37.396Z,989.18
2024-02-29T12:59:37.457Z,989.21
2024-02-29T13:00:37.433Z,989.17
2024-02-29T13:01:37.457Z,989.14
2024-02-29T13:02:37.368Z,989.15
2024-02-29T13:03:37.335Z,989.09
2024-02-29T13:04:37.325Z,989.08
2024-02-29T13:05:37.312Z,989.08
2024-02-29T13:06:37.296Z,989.00
2024-02-29T13:07:37.298Z,988.96
2024-02-29T13:08:37.282Z,988.97
2024-02-29T13:09:37.296Z,988.86
2024-02-29T13:10:37.291Z,988.91
2024-02-29T13:11:37.303Z,988.90
2024-02-29T13:12:37.262Z,988.91
2024-02-29T13:13:37.255Z,988.87
2024-02-29T13:14:37.217Z,988.87
2024-02-29T13:15:37.215Z,988.84
2024-02-29T13:16:37.293Z,988.87
2024-02-29T13:17:37.244Z,988.84
2024-02-29T13:18:37.182Z,988.92
2024-02-29T13:19:37.162Z,988.85
2024-02-29T13:20:37.161Z,988.81
2024-02-29T13:21:37.151Z,988.82
2024-02-29T13:22:37.135Z,988.67
2024-02-29T13:23:37.147Z,988.61
2024-02-29T13:24:37.119Z,988.68
2024-02-29T13:25:37.254Z,988.58
2024-02-29T13:26:37.108Z,988.63
2024-02-29T13:27:37.103Z,988.61
2024-02-29T13:28:37.166Z,988.52
2024-02-29T13:29:37.060Z,988.54
2024-02-29T13:30:37.082Z,988.57
2024-02-29T13:31:37.067Z,988.43
2024-02-29T13:32:37.074Z,988.53
2024-02-29T13:33:37.023Z,988.49
2024-02-29T13:34:37.023Z,988.55
2024-02-29T13:35:37.030Z,988.48
2024-02-29T13:36:37.013Z,988.44
2024-02-29T13:37:37.032Z,988.49
2024-02-29T13:38:36.984Z,988.35
2024-02-29T13:39:36.966Z,988.35
2024-02-29T13:40:36.995Z,988.38
2024-02-29T13:41:36.953Z,988.22
2024-02-29T13:42:36.942Z,988.29
2024-02-29T13:43:36.948Z,988.27
2024-02-29T13:44:36.998Z,988.30
2024-02-29T13:45:36.899Z,988.29
2024-02-29T13:46:36.874Z,988.20
2024-02-29T13:47:36.921Z,988.29
2024-02-29T13:48:36.865Z,988.28
2024-02-29T13:49:36.899Z,988.19
2024-02-29T13:50:36.857Z,988.16
2024-02-29T13:51:36.826Z,988.16
2024-02-29T13:52:36.819Z,988.13
2024-02-29T13:53:36.809Z,988.12
2024-02-29T13:54:38.594Z,988.16
2024-02-29T13:55:36.810Z,988.06
2024-02-29T13:56:36.779Z,988.09
2024-02-29T13:57:36.802Z,988.10
2024-02-29T13:58:36.773Z,987.99
2024-02-29T13:59:36.778Z,988.01
2024-02-29T14:00:36.887Z,987.95
2024-02-29T14:01:36.834Z,987.95
2024-02-29T14:02:36.741Z,987.94
2024-02-29T14:03:36.716Z,987.85
2024-02-29T14:04:36.694Z,987.90
2024-02-29T14:05:36.686Z,987.88
2024-02-29T14:06:36.686Z,987.88
2024-02-29T14:07:36.663Z,987.85
2024-02-29T14:08:36.702Z,987.76
2024-02-29T14:09:36.643Z,987.83
2024-02-29T14:10:36.670Z,987.77
2024-02-29T14:11:36.675Z,987.74
2024-02-29T14:12:36.630Z,987.70
2024-02-29T14:13:39.404Z,987.82
2024-02-29T14:14:36.583Z,987.68
2024-02-29T14:15:36.569Z,987.72
2024-02-29T14:16:36.657Z,987.69
2024-02-29T14:17:36.574Z,987.72
2024-02-29T14:18:36.556Z,987.66
2024-02-29T14:19:36.645Z,987.66
2024-02-29T14:20:36.558Z,987.65
2024-02-29T14:21:36.510Z,987.58
2024-02-29T14:22:36.552Z,987.62
2024-02-29T14:23:36.513Z,987.52
2024-02-29T14:24:36.510Z,987.58
2024-02-29T14:25:36.516Z,987.53
2024-02-29T14:26:36.494Z,987.52
2024-02-29T14:27:36.463Z,987.47
2024-02-29T14:28:36.454Z,987.44
2024-02-29T14:29:36.449Z,987.46
2024-02-29T14:30:36.425Z,987.39
2024-02-29T14:31:36.449Z,987.41
2024-02-29T14:32:36.526Z,987.41
2024-02-29T14:33:36.380Z,987.41
2024-02-29T14:34:36.380Z,987.39
2024-02-29T14:35:36.396Z,987.43
2024-02-29T14:36:38.598Z,987.31
2024-02-29T14:37:36.514Z,987.26
2024-02-29T14:38:36.342Z,987.32
2024-02-29T14:39:42.472Z,987.29
2024-02-29T14:40:36.406Z,987.26
2024-02-29T14:41:36.407Z,987.25
2024-02-29T14:42:36.384Z,987.22
2024-02-29T14:43:36.299Z,987.26
2024-02-29T14:44:36.315Z,987.18
2024-02-29T14:45:36.306Z,987.16
2024-02-29T14:46:36.268Z,987.26
2024-02-29T14:47:36.308Z,987.17
2024-02-29T14:48:36.324Z,987.08
2024-02-29T14:49:36.252Z,987.15
2024-02-29T14:50:36.237Z,987.16
2024-02-29T14:51:36.231Z,987.05
2024-02-29T14:52:40.349Z,987.15
2024-02-29T14:53:36.238Z,987.10
2024-02-29T14:54:36.219Z,987.07
2024-02-29T14:55:36.180Z,987.02
2024-02-29T14:56:36.168Z,987.08
2024-02-29T14:57:36.214Z,987.00
2024-02-29T14:58:36.152Z,986.94
2024-02-29T14:59:36.173Z,986.92
2024-02-29T15:00:36.537Z,986.95
2024-02-29T15:01:36.163Z,986.93
2024-02-29T15:02:36.081Z,986.93
2024-02-29T15:03:36.090Z,986.85
2024-02-29T15:04:37.267Z,986.85
2024-02-29T15:05:36.070Z,986.79
2024-02-29T15:06:36.074Z,986.84
2024-02-29T15:07:36.045Z,986.80
2024-02-29T15:08:36.036Z,986.86
2024-02-29T15:09:36.061Z,986.78
2024-02-29T15:10:36.055Z,986.89
2024-02-29T15:11:36.042Z,986.76
2024-02-29T15:12:35.997Z,986.80
2024-02-29T15:13:35.982Z,986.76
2024-02-29T15:14:35.984Z,986.70
2024-02-29T15:15:35.960Z,986.82
2024-02-29T15:16:35.972Z,986.75
2024-02-29T15:17:35.981Z,986.62
2024-02-29T15:18:35.911Z,986.71
2024-02-29T15:19:35.940Z,986.64
2024-02-29T15:20:35.990Z,986.64
2024-02-29T15:21:35.914Z,986.74
2024-02-29T15:22:35.869Z,986.64
2024-02-29T15:23:35.905Z,986.64
2024-02-29T15:24:35.867Z,986.60
2024-02-29T15:25:35.891Z,986.60
2024-02-29T15:26:35.968Z,986.58
2024-02-29T15:27:35.821Z,986.68
2024-02-29T15:28:35.889Z,986.51
2024-02-29T15:29:35.836Z,986.57
2024-02-29T15:30:35.893Z,986.52
2024-02-29T15:31:35.814Z,986.48
2024-02-29T15:32:35.952Z,986.49
2024-02-29T15:33:35.788Z,986.46
2024-02-29T15:34:35.796Z,986.45
2024-02-29T15:35:35.724Z,986.48
2024-02-29T15:36:35.810Z,986.46
2024-02-29T15:37:35.770Z,986.39
2024-02-29T15:39:03.968Z,986.35
2024-02-29T15:39:35.723Z,986.37
2024-02-29T15:40:35.781Z,986.38
2024-02-29T15:41:35.721Z,986.42
2024-02-29T15:42:35.691Z,986.41
2024-02-29T15:43:35.770Z,986.40
2024-02-29T15:44:35.759Z,986.36
2024-02-29T15:45:35.654Z,986.31
2024-02-29T15:46:35.715Z,986.27
2024-02-29T15:47:35.679Z,986.30
2024-02-29T15:48:35.638Z,986.26
2024-02-29T15:49:35.631Z,986.20
2024-02-29T15:50:35.582Z,986.25
2024-02-29T15:51:35.555Z,986.21
2024-02-29T15:52:35.701Z,986.27
2024-02-29T15:53:35.545Z,986.23
2024-02-29T15:54:35.548Z,986.24
2024-02-29T15:55:35.642Z,986.19
2024-02-29T15:56:35.543Z,986.22
2024-02-29T15:57:35.528Z,986.19
2024-02-29T15:58:35.563Z,986.24
2024-02-29T15:59:35.474Z,986.18
2024-02-29T16:00:35.509Z,986.21
2024-02-29T16:01:35.582Z,986.19
2024-02-29T16:02:35.487Z,986.18
2024-02-29T16:03:35.433Z,986.13
2024-02-29T16:04:35.417Z,986.19
2024-02-29T16:05:35.454Z,986.17
2024-02-29T16:06:35.518Z,986.18
2024-02-29T16:07:35.459Z,986.18
2024-02-29T16:08:35.473Z,986.11
2024-02-29T16:09:35.398Z,986.10
2024-02-29T16:10:47.407Z,986.14
2024-02-29T16:11:35.433Z,986.10
2024-02-29T16:12:35.356Z,986.01
2024-02-29T16:13:35.322Z,985.97
2024-02-29T16:14:35.323Z,986.07
2024-02-29T16:15:35.311Z,986.03
2024-02-29T16:16:35.344Z,985.98
2024-02-29T16:17:35.332Z,985.98
2024-02-29T16:18:35.302Z,985.96
2024-02-29T16:19:35.269Z,985.90
2024-02-29T16:20:35.286Z,985.98
2024-02-29T16:21:35.271Z,985.92
2024-02-29T16:22:35.328Z,985.93
2024-02-29T16:23:35.215Z,985.83
2024-02-29T16:24:35.330Z,985.84
2024-02-29T16:25:35.347Z,985.92
2024-02-29T16:26:35.212Z,985.90
2024-02-29T16:27:35.179Z,985.87
2024-02-29T16:28:35.187Z,985.84
2024-02-29T16:29:35.172Z,985.92
2024-02-29T16:30:35.168Z,985.86
2024-02-29T16:31:35.167Z,985.85
2024-02-29T16:32:35.158Z,985.83
2024-02-29T16:33:35.118Z,985.87
2024-02-29T16:34:35.122Z,985.95
2024-02-29T16:35:35.107Z,985.94
2024-02-29T16:36:35.097Z,985.91
2024-02-29T16:37:35.082Z,985.89
2024-02-29T16:38:35.076Z,985.83
2024-02-29T16:39:35.052Z,985.88
2024-02-29T16:40:35.186Z,985.81
2024-02-29T16:41:35.040Z,985.91
2024-02-29T16:42:35.118Z,985.83
2024-02-29T16:43:35.026Z,985.90
2024-02-29T16:44:35.019Z,985.81
2024-02-29T16:45:34.990Z,985.81
2024-02-29T16:46:35.092Z,985.86
2024-02-29T16:47:35.042Z,985.88
2024-02-29T16:48:35.029Z,985.83
2024-02-29T16:49:34.974Z,985.82
2024-02-29T16:50:34.957Z,985.92
2024-02-29T16:51:34.938Z,985.88
2024-02-29T16:52:34.974Z,985.76
2024-02-29T16:53:34.933Z,985.79
2024-02-29T16:54:34.915Z,985.85
2024-02-29T16:55:34.961Z,985.81
2024-02-29T16:56:34.976Z,985.81
2024-02-29T16:57:34.867Z,985.81
2024-02-29T16:58:34.955Z,985.78
2024-02-29T16:59:34.838Z,985.81
2024-02-29T17:00:34.847Z,985.77
2024-02-29T17:01:34.917Z,985.72
2024-02-29T17:02:34.822Z,985.80
2024-02-29T17:03:34.888Z,985.82
2024-02-29T17:04:34.826Z,985.77
2024-02-29T17:05:36.394Z,985.72
2024-02-29T17:06:34.771Z,985.77
2024-02-29T17:07:34.777Z,985.79
2024-02-29T17:08:34.768Z,985.78
2024-02-29T17:09:37.306Z,985.86
2024-02-29T17:10:34.788Z,985.82
2024-02-29T17:11:34.945Z,985.71
2024-02-29T17:12:34.735Z,985.75
2024-02-29T17:13:34.721Z,985.74
2024-02-29T17:14:34.727Z,985.75
2024-02-29T17:15:36.550Z,985.71
2024-02-29T17:16:34.697Z,985.72
2024-02-29T17:17:34.719Z,985.78
2024-02-29T17:18:34.682Z,985.74
2024-02-29T17:19:34.641Z,985.72
2024-02-29T17:20:34.650Z,985.69
2024-02-29T17:21:34.647Z,985.68
2024-02-29T17:22:34.664Z,985.67
2024-02-29T17:23:34.596Z,985.73
2024-02-29T17:24:34.590Z,985.67
2024-02-29T17:25:34.636Z,985.63